sensor_id;sensor_type;location;lat;lon;timestamp;P1;durP1;ratioP1;P2;durP2;ratioP2
12770;SDS011;6449;47.666;9.160;2022-09-27T00:04:17;1.30;;;1.20;;
12770;SDS011;6449;47.666;9.160;2022-09-27T00:09:10;2.00;;;1.23;;
12770;SDS011;6449;47.666;9.160;2022-09-27T00:14:04;1.50;;;1.30;;
12770;SDS011;6449;47.666;9.160;2022-09-27T00:19:01;2.07;;;1.40;;
12770;SDS011;6449;47.666;9.160;2022-09-27T00:23:58;2.87;;;1.40;;
12770;SDS011;6449;47.666;9.160;2022-09-27T00:28:52;4.83;;;1.40;;
12770;SDS011;6449;47.666;9.160;2022-09-27T00:33:46;1.97;;;1.10;;
12770;SDS011;6449;47.666;9.160;2022-09-27T00:38:42;2.17;;;0.90;;
12770;SDS011;6449;47.666;9.160;2022-09-27T00:43:42;1.20;;;1.10;;
12770;SDS011;6449;47.666;9.160;2022-09-27T00:48:39;1.43;;;1.20;;
12770;SDS011;6449;47.666;9.160;2022-09-27T00:53:34;1.20;;;1.10;;
12770;SDS011;6449;47.666;9.160;2022-09-27T00:58:38;2.43;;;1.00;;
12770;SDS011;6449;47.666;9.160;2022-09-27T01:03:39;1.00;;;0.80;;
12770;SDS011;6449;47.666;9.160;2022-09-27T01:08:42;1.37;;;1.10;;
12770;SDS011;6449;47.666;9.160;2022-09-27T01:13:39;0.90;;;0.90;;
12770;SDS011;6449;47.666;9.160;2022-09-27T01:18:51;1.47;;;0.90;;
12770;SDS011;6449;47.666;9.160;2022-09-27T01:29:48;0.90;;;0.90;;
12770;SDS011;6449;47.666;9.160;2022-09-27T01:35:16;1.37;;;1.20;;
12770;SDS011;6449;47.666;9.160;2022-09-27T01:40:22;1.30;;;1.20;;
12770;SDS011;6449;47.666;9.160;2022-09-27T01:45:27;2.60;;;1.17;;
12770;SDS011;6449;47.666;9.160;2022-09-27T01:50:28;1.83;;;1.20;;
12770;SDS011;6449;47.666;9.160;2022-09-27T01:55:31;1.30;;;1.20;;
12770;SDS011;6449;47.666;9.160;2022-09-27T02:00:31;1.40;;;1.30;;
12770;SDS011;6449;47.666;9.160;2022-09-27T02:05:28;1.10;;;1.00;;
12770;SDS011;6449;47.666;9.160;2022-09-27T02:10:28;1.90;;;1.40;;
12770;SDS011;6449;47.666;9.160;2022-09-27T02:15:31;1.33;;;1.23;;
12770;SDS011;6449;47.666;9.160;2022-09-27T02:20:40;1.50;;;1.40;;
12770;SDS011;6449;47.666;9.160;2022-09-27T02:25:45;2.73;;;1.13;;
12770;SDS011;6449;47.666;9.160;2022-09-27T02:30:49;1.70;;;1.10;;
12770;SDS011;6449;47.666;9.160;2022-09-27T02:35:46;0.90;;;0.80;;
12770;SDS011;6449;47.666;9.160;2022-09-27T02:40:43;0.70;;;0.70;;
12770;SDS011;6449;47.666;9.160;2022-09-27T02:45:40;0.83;;;0.60;;
12770;SDS011;6449;47.666;9.160;2022-09-27T02:51:10;0.80;;;0.50;;
12770;SDS011;6449;47.666;9.160;2022-09-27T02:56:23;0.53;;;0.43;;
12770;SDS011;6449;47.666;9.160;2022-09-27T03:01:29;2.13;;;0.50;;
12770;SDS011;6449;47.666;9.160;2022-09-27T03:06:34;0.73;;;0.40;;
12770;SDS011;6449;47.666;9.160;2022-09-27T03:11:30;2.67;;;0.60;;
12770;SDS011;6449;47.666;9.160;2022-09-27T03:16:24;1.93;;;0.50;;
12770;SDS011;6449;47.666;9.160;2022-09-27T03:21:19;1.33;;;0.47;;
12770;SDS011;6449;47.666;9.160;2022-09-27T03:26:13;0.60;;;0.30;;
12770;SDS011;6449;47.666;9.160;2022-09-27T03:31:06;1.70;;;0.40;;
12770;SDS011;6449;47.666;9.160;2022-09-27T03:36:00;0.77;;;0.50;;
12770;SDS011;6449;47.666;9.160;2022-09-27T03:40:55;0.80;;;0.30;;
12770;SDS011;6449;47.666;9.160;2022-09-27T03:45:49;0.60;;;0.60;;
12770;SDS011;6449;47.666;9.160;2022-09-27T03:50:43;0.57;;;0.40;;
12770;SDS011;6449;47.666;9.160;2022-09-27T03:55:36;1.63;;;0.60;;
12770;SDS011;6449;47.666;9.160;2022-09-27T04:00:31;0.63;;;0.43;;
12770;SDS011;6449;47.666;9.160;2022-09-27T04:05:24;2.80;;;0.60;;
12770;SDS011;6449;47.666;9.160;2022-09-27T04:10:21;1.10;;;0.50;;
12770;SDS011;6449;47.666;9.160;2022-09-27T04:15:14;0.93;;;0.50;;
12770;SDS011;6449;47.666;9.160;2022-09-27T04:20:10;0.90;;;0.50;;
12770;SDS011;6449;47.666;9.160;2022-09-27T04:25:04;1.57;;;0.83;;
12770;SDS011;6449;47.666;9.160;2022-09-27T04:29:59;1.13;;;0.50;;
12770;SDS011;6449;47.666;9.160;2022-09-27T04:34:52;0.40;;;0.30;;
12770;SDS011;6449;47.666;9.160;2022-09-27T04:40:05;0.90;;;0.47;;
12770;SDS011;6449;47.666;9.160;2022-09-27T04:44:59;1.80;;;0.80;;
12770;SDS011;6449;47.666;9.160;2022-09-27T04:49:53;2.00;;;0.60;;
12770;SDS011;6449;47.666;9.160;2022-09-27T04:54:46;1.33;;;0.57;;
12770;SDS011;6449;47.666;9.160;2022-09-27T04:59:41;0.73;;;0.50;;
12770;SDS011;6449;47.666;9.160;2022-09-27T05:04:34;2.63;;;0.80;;
12770;SDS011;6449;47.666;9.160;2022-09-27T05:09:31;1.23;;;0.90;;
12770;SDS011;6449;47.666;9.160;2022-09-27T05:14:24;0.73;;;0.60;;
12770;SDS011;6449;47.666;9.160;2022-09-27T05:19:19;1.07;;;0.70;;
12770;SDS011;6449;47.666;9.160;2022-09-27T05:24:12;1.97;;;1.00;;
12770;SDS011;6449;47.666;9.160;2022-09-27T05:29:06;1.70;;;0.83;;
12770;SDS011;6449;47.666;9.160;2022-09-27T05:34:00;2.43;;;0.90;;
12770;SDS011;6449;47.666;9.160;2022-09-27T05:38:55;2.10;;;0.70;;
12770;SDS011;6449;47.666;9.160;2022-09-27T05:43:48;2.40;;;0.83;;
12770;SDS011;6449;47.666;9.160;2022-09-27T05:48:42;3.20;;;0.63;;
12770;SDS011;6449;47.666;9.160;2022-09-27T05:53:36;2.27;;;0.70;;
12770;SDS011;6449;47.666;9.160;2022-09-27T05:58:31;2.00;;;0.70;;
12770;SDS011;6449;47.666;9.160;2022-09-27T06:03:24;3.67;;;0.70;;
12770;SDS011;6449;47.666;9.160;2022-09-27T06:08:18;0.80;;;0.60;;
12770;SDS011;6449;47.666;9.160;2022-09-27T06:13:13;1.03;;;0.70;;
12770;SDS011;6449;47.666;9.160;2022-09-27T06:18:10;0.80;;;0.80;;
12770;SDS011;6449;47.666;9.160;2022-09-27T06:23:11;1.97;;;0.80;;
12770;SDS011;6449;47.666;9.160;2022-09-27T06:28:06;2.07;;;1.00;;
12770;SDS011;6449;47.666;9.160;2022-09-27T06:33:01;2.97;;;1.00;;
12770;SDS011;6449;47.666;9.160;2022-09-27T06:37:57;2.67;;;1.37;;
12770;SDS011;6449;47.666;9.160;2022-09-27T06:42:53;0.63;;;0.63;;
12770;SDS011;6449;47.666;9.160;2022-09-27T06:47:53;1.37;;;0.67;;
12770;SDS011;6449;47.666;9.160;2022-09-27T06:52:47;0.83;;;0.70;;
12770;SDS011;6449;47.666;9.160;2022-09-27T06:57:43;1.20;;;0.70;;
12770;SDS011;6449;47.666;9.160;2022-09-27T07:02:55;1.53;;;1.20;;
12770;SDS011;6449;47.666;9.160;2022-09-27T07:07:51;2.77;;;1.23;;
12770;SDS011;6449;47.666;9.160;2022-09-27T07:12:49;1.80;;;1.00;;
12770;SDS011;6449;47.666;9.160;2022-09-27T07:17:42;1.77;;;0.90;;
12770;SDS011;6449;47.666;9.160;2022-09-27T07:22:38;1.00;;;0.90;;
12770;SDS011;6449;47.666;9.160;2022-09-27T07:27:33;2.20;;;1.20;;
12770;SDS011;6449;47.666;9.160;2022-09-27T07:32:30;1.80;;;0.70;;
12770;SDS011;6449;47.666;9.160;2022-09-27T07:37:25;2.73;;;1.00;;
12770;SDS011;6449;47.666;9.160;2022-09-27T07:42:19;0.87;;;0.80;;
12770;SDS011;6449;47.666;9.160;2022-09-27T07:47:13;2.50;;;0.90;;
12770;SDS011;6449;47.666;9.160;2022-09-27T07:52:14;2.83;;;1.00;;
12770;SDS011;6449;47.666;9.160;2022-09-27T07:57:08;2.57;;;1.10;;
12770;SDS011;6449;47.666;9.160;2022-09-27T08:02:01;1.03;;;0.87;;
12770;SDS011;6449;47.666;9.160;2022-09-27T08:06:55;0.77;;;0.77;;
12770;SDS011;6449;47.666;9.160;2022-09-27T08:11:50;1.80;;;1.13;;
12770;SDS011;6449;47.666;9.160;2022-09-27T08:16:48;2.60;;;0.60;;
12770;SDS011;6449;47.666;9.160;2022-09-27T08:21:42;0.50;;;0.50;;
12770;SDS011;6449;47.666;9.160;2022-09-27T08:26:36;0.50;;;0.43;;
12770;SDS011;6449;47.666;9.160;2022-09-27T08:31:31;1.10;;;0.50;;
12770;SDS011;6449;47.666;9.160;2022-09-27T08:36:25;0.70;;;0.70;;
12770;SDS011;6449;47.666;9.160;2022-09-27T08:41:22;0.63;;;0.50;;
12770;SDS011;6449;47.666;9.160;2022-09-27T08:46:31;1.43;;;0.90;;
12770;SDS011;6449;47.666;9.160;2022-09-27T08:51:36;1.47;;;1.10;;
12770;SDS011;6449;47.666;9.160;2022-09-27T08:56:32;1.70;;;1.60;;
12770;SDS011;6449;47.666;9.160;2022-09-27T09:01:28;1.23;;;1.00;;
12770;SDS011;6449;47.666;9.160;2022-09-27T09:06:24;1.57;;;0.80;;
12770;SDS011;6449;47.666;9.160;2022-09-27T09:11:33;4.10;;;1.10;;
12770;SDS011;6449;47.666;9.160;2022-09-27T09:17:02;2.53;;;1.23;;
12770;SDS011;6449;47.666;9.160;2022-09-27T09:22:13;3.63;;;1.43;;
12770;SDS011;6449;47.666;9.160;2022-09-27T09:27:29;4.47;;;1.20;;
12770;SDS011;6449;47.666;9.160;2022-09-27T09:32:33;1.90;;;1.20;;
12770;SDS011;6449;47.666;9.160;2022-09-27T09:37:42;1.20;;;1.00;;
12770;SDS011;6449;47.666;9.160;2022-09-27T09:42:41;2.27;;;1.40;;
12770;SDS011;6449;47.666;9.160;2022-09-27T09:53:18;2.07;;;1.30;;
12770;SDS011;6449;47.666;9.160;2022-09-27T09:58:40;2.70;;;1.20;;
12770;SDS011;6449;47.666;9.160;2022-09-27T10:47:04;3.23;;;1.30;;
12770;SDS011;6449;47.666;9.160;2022-09-27T10:52:13;3.10;;;0.90;;
12770;SDS011;6449;47.666;9.160;2022-09-27T10:57:18;1.00;;;0.80;;
12770;SDS011;6449;47.666;9.160;2022-09-27T11:26:33;2.10;;;0.50;;
12770;SDS011;6449;47.666;9.160;2022-09-27T11:32:32;0.50;;;0.47;;
12770;SDS011;6449;47.666;9.160;2022-09-27T11:39:05;0.20;;;0.20;;
12770;SDS011;6449;47.666;9.160;2022-09-27T11:50:35;1.00;;;0.50;;
12770;SDS011;6449;47.666;9.160;2022-09-27T11:55:58;0.40;;;0.30;;
12770;SDS011;6449;47.666;9.160;2022-09-27T12:01:09;0.30;;;0.30;;
12770;SDS011;6449;47.666;9.160;2022-09-27T12:06:26;1.13;;;0.53;;
12770;SDS011;6449;47.666;9.160;2022-09-27T12:11:41;0.50;;;0.50;;
12770;SDS011;6449;47.666;9.160;2022-09-27T12:16:56;0.67;;;0.50;;
12770;SDS011;6449;47.666;9.160;2022-09-27T12:21:52;0.30;;;0.30;;
12770;SDS011;6449;47.666;9.160;2022-09-27T12:37:13;0.70;;;0.40;;
12770;SDS011;6449;47.666;9.160;2022-09-27T12:42:16;1.13;;;0.43;;
12770;SDS011;6449;47.666;9.160;2022-09-27T12:47:19;0.40;;;0.40;;
12770;SDS011;6449;47.666;9.160;2022-09-27T12:52:40;0.43;;;0.40;;
12770;SDS011;6449;47.666;9.160;2022-09-27T12:57:46;1.87;;;0.60;;
12770;SDS011;6449;47.666;9.160;2022-09-27T13:03:18;1.77;;;0.70;;
12770;SDS011;6449;47.666;9.160;2022-09-27T13:14:30;2.60;;;0.90;;
12770;SDS011;6449;47.666;9.160;2022-09-27T13:19:40;0.77;;;0.50;;
12770;SDS011;6449;47.666;9.160;2022-09-27T13:29:29;1.33;;;0.70;;
12770;SDS011;6449;47.666;9.160;2022-09-27T13:34:36;0.73;;;0.70;;
12770;SDS011;6449;47.666;9.160;2022-09-27T13:39:31;1.83;;;0.57;;
12770;SDS011;6449;47.666;9.160;2022-09-27T13:44:32;1.40;;;0.63;;
12770;SDS011;6449;47.666;9.160;2022-09-27T13:49:39;0.40;;;0.40;;
12770;SDS011;6449;47.666;9.160;2022-09-27T13:54:48;0.50;;;0.50;;
12770;SDS011;6449;47.666;9.160;2022-09-27T13:59:46;3.03;;;0.50;;
12770;SDS011;6449;47.666;9.160;2022-09-27T14:04:45;1.47;;;0.53;;
12770;SDS011;6449;47.666;9.160;2022-09-27T14:09:43;3.23;;;0.60;;
12770;SDS011;6449;47.666;9.160;2022-09-27T14:14:44;0.70;;;0.60;;
12770;SDS011;6449;47.666;9.160;2022-09-27T14:19:41;1.70;;;0.60;;
12770;SDS011;6449;47.666;9.160;2022-09-27T14:24:43;1.60;;;0.57;;
12770;SDS011;6449;47.666;9.160;2022-09-27T14:29:42;0.70;;;0.50;;
12770;SDS011;6449;47.666;9.160;2022-09-27T14:34:39;0.90;;;0.40;;
12770;SDS011;6449;47.666;9.160;2022-09-27T14:39:33;0.43;;;0.40;;
12770;SDS011;6449;47.666;9.160;2022-09-27T14:44:28;0.43;;;0.43;;
12770;SDS011;6449;47.666;9.160;2022-09-27T14:49:23;2.40;;;0.60;;
12770;SDS011;6449;47.666;9.160;2022-09-27T14:54:20;0.97;;;0.60;;
12770;SDS011;6449;47.666;9.160;2022-09-27T14:59:18;1.13;;;0.50;;
12770;SDS011;6449;47.666;9.160;2022-09-27T15:04:21;1.10;;;0.47;;
12770;SDS011;6449;47.666;9.160;2022-09-27T15:09:17;1.20;;;0.70;;
12770;SDS011;6449;47.666;9.160;2022-09-27T15:14:23;0.90;;;0.50;;
12770;SDS011;6449;47.666;9.160;2022-09-27T15:19:21;0.50;;;0.50;;
12770;SDS011;6449;47.666;9.160;2022-09-27T15:24:37;0.60;;;0.40;;
12770;SDS011;6449;47.666;9.160;2022-09-27T15:29:35;0.67;;;0.40;;
12770;SDS011;6449;47.666;9.160;2022-09-27T15:34:28;2.23;;;0.70;;
12770;SDS011;6449;47.666;9.160;2022-09-27T15:39:28;0.60;;;0.30;;
12770;SDS011;6449;47.666;9.160;2022-09-27T15:44:35;0.10;;;0.10;;
12770;SDS011;6449;47.666;9.160;2022-09-27T15:49:36;2.00;;;0.30;;
12770;SDS011;6449;47.666;9.160;2022-09-27T15:54:30;0.20;;;0.20;;
12770;SDS011;6449;47.666;9.160;2022-09-27T15:59:28;0.30;;;0.30;;
12770;SDS011;6449;47.666;9.160;2022-09-27T16:04:25;1.50;;;0.20;;
12770;SDS011;6449;47.666;9.160;2022-09-27T16:09:21;0.30;;;0.30;;
12770;SDS011;6449;47.666;9.160;2022-09-27T16:14:15;0.47;;;0.33;;
12770;SDS011;6449;47.666;9.160;2022-09-27T16:19:10;0.20;;;0.20;;
12770;SDS011;6449;47.666;9.160;2022-09-27T16:24:05;0.83;;;0.40;;
12770;SDS011;6449;47.666;9.160;2022-09-27T16:29:00;1.67;;;0.40;;
12770;SDS011;6449;47.666;9.160;2022-09-27T16:34:00;0.33;;;0.30;;
12770;SDS011;6449;47.666;9.160;2022-09-27T16:43:58;0.90;;;0.60;;
12770;SDS011;6449;47.666;9.160;2022-09-27T16:49:00;0.50;;;0.50;;
12770;SDS011;6449;47.666;9.160;2022-09-27T16:54:27;1.70;;;0.60;;
12770;SDS011;6449;47.666;9.160;2022-09-27T16:59:37;0.63;;;0.50;;
12770;SDS011;6449;47.666;9.160;2022-09-27T17:04:31;1.33;;;0.40;;
12770;SDS011;6449;47.666;9.160;2022-09-27T17:09:24;1.17;;;0.30;;
12770;SDS011;6449;47.666;9.160;2022-09-27T17:14:17;0.40;;;0.40;;
12770;SDS011;6449;47.666;9.160;2022-09-27T17:19:12;0.60;;;0.60;;
12770;SDS011;6449;47.666;9.160;2022-09-27T17:24:08;1.33;;;0.37;;
12770;SDS011;6449;47.666;9.160;2022-09-27T17:29:02;0.80;;;0.50;;
12770;SDS011;6449;47.666;9.160;2022-09-27T17:33:55;0.90;;;0.57;;
12770;SDS011;6449;47.666;9.160;2022-09-27T17:38:51;0.63;;;0.30;;
12770;SDS011;6449;47.666;9.160;2022-09-27T17:43:45;0.60;;;0.43;;
12770;SDS011;6449;47.666;9.160;2022-09-27T17:48:40;1.47;;;0.67;;
12770;SDS011;6449;47.666;9.160;2022-09-27T17:53:53;0.60;;;0.40;;
12770;SDS011;6449;47.666;9.160;2022-09-27T17:58:46;0.40;;;0.40;;
12770;SDS011;6449;47.666;9.160;2022-09-27T18:03:41;1.17;;;0.30;;
12770;SDS011;6449;47.666;9.160;2022-09-27T18:08:36;0.43;;;0.40;;
12770;SDS011;6449;47.666;9.160;2022-09-27T18:13:31;0.33;;;0.33;;
12770;SDS011;6449;47.666;9.160;2022-09-27T18:18:31;0.67;;;0.50;;
12770;SDS011;6449;47.666;9.160;2022-09-27T18:23:27;0.43;;;0.43;;
12770;SDS011;6449;47.666;9.160;2022-09-27T18:28:23;0.90;;;0.40;;
12770;SDS011;6449;47.666;9.160;2022-09-27T18:33:20;0.40;;;0.40;;
12770;SDS011;6449;47.666;9.160;2022-09-27T18:38:14;1.30;;;0.50;;
12770;SDS011;6449;47.666;9.160;2022-09-27T18:56:07;1.00;;;0.90;;
12770;SDS011;6449;47.666;9.160;2022-09-27T19:01:47;2.20;;;0.93;;
12770;SDS011;6449;47.666;9.160;2022-09-27T19:33:44;2.50;;;0.93;;
12770;SDS011;6449;47.666;9.160;2022-09-27T19:40:00;1.30;;;1.10;;
12770;SDS011;6449;47.666;9.160;2022-09-27T19:58:34;1.00;;;0.90;;
12770;SDS011;6449;47.666;9.160;2022-09-27T20:04:09;2.07;;;1.10;;
12770;SDS011;6449;47.666;9.160;2022-09-27T20:09:10;1.33;;;1.17;;
12770;SDS011;6449;47.666;9.160;2022-09-27T20:14:20;1.00;;;0.90;;
12770;SDS011;6449;47.666;9.160;2022-09-27T20:19:13;1.10;;;1.00;;
12770;SDS011;6449;47.666;9.160;2022-09-27T20:24:07;2.20;;;1.10;;
12770;SDS011;6449;47.666;9.160;2022-09-27T20:29:02;1.30;;;1.03;;
12770;SDS011;6449;47.666;9.160;2022-09-27T20:33:57;1.60;;;1.20;;
12770;SDS011;6449;47.666;9.160;2022-09-27T20:38:51;1.10;;;1.00;;
12770;SDS011;6449;47.666;9.160;2022-09-27T20:43:54;1.30;;;0.90;;
12770;SDS011;6449;47.666;9.160;2022-09-27T20:48:52;1.07;;;0.93;;
12770;SDS011;6449;47.666;9.160;2022-09-27T20:53:48;1.20;;;1.10;;
12770;SDS011;6449;47.666;9.160;2022-09-27T20:58:45;1.20;;;1.10;;
12770;SDS011;6449;47.666;9.160;2022-09-27T21:03:40;1.43;;;1.00;;
12770;SDS011;6449;47.666;9.160;2022-09-27T21:08:35;2.47;;;1.50;;
12770;SDS011;6449;47.666;9.160;2022-09-27T21:13:28;1.77;;;1.20;;
12770;SDS011;6449;47.666;9.160;2022-09-27T21:18:21;1.43;;;0.90;;
12770;SDS011;6449;47.666;9.160;2022-09-27T21:23:15;1.00;;;0.90;;
12770;SDS011;6449;47.666;9.160;2022-09-27T21:28:09;1.23;;;0.90;;
12770;SDS011;6449;47.666;9.160;2022-09-27T21:33:02;0.90;;;0.90;;
12770;SDS011;6449;47.666;9.160;2022-09-27T21:37:56;1.13;;;1.00;;
12770;SDS011;6449;47.666;9.160;2022-09-27T21:42:49;2.67;;;1.20;;
12770;SDS011;6449;47.666;9.160;2022-09-27T21:47:49;1.67;;;1.37;;
12770;SDS011;6449;47.666;9.160;2022-09-27T21:52:42;1.20;;;1.00;;
12770;SDS011;6449;47.666;9.160;2022-09-27T22:02:46;2.00;;;1.00;;
12770;SDS011;6449;47.666;9.160;2022-09-27T22:07:41;1.17;;;1.03;;
12770;SDS011;6449;47.666;9.160;2022-09-27T22:12:34;1.57;;;1.17;;
12770;SDS011;6449;47.666;9.160;2022-09-27T22:17:27;0.83;;;0.80;;
12770;SDS011;6449;47.666;9.160;2022-09-27T22:22:21;0.87;;;0.87;;
12770;SDS011;6449;47.666;9.160;2022-09-27T22:27:15;1.10;;;0.90;;
12770;SDS011;6449;47.666;9.160;2022-09-27T22:32:09;1.03;;;0.93;;
12770;SDS011;6449;47.666;9.160;2022-09-27T22:37:02;1.33;;;0.90;;
12770;SDS011;6449;47.666;9.160;2022-09-27T22:41:55;1.47;;;1.00;;
12770;SDS011;6449;47.666;9.160;2022-09-27T22:46:50;1.13;;;0.80;;
12770;SDS011;6449;47.666;9.160;2022-09-27T22:51:43;1.07;;;0.93;;
12770;SDS011;6449;47.666;9.160;2022-09-27T22:56:37;2.63;;;0.93;;
12770;SDS011;6449;47.666;9.160;2022-09-27T23:01:30;1.30;;;1.07;;
12770;SDS011;6449;47.666;9.160;2022-09-27T23:06:25;0.97;;;0.80;;
12770;SDS011;6449;47.666;9.160;2022-09-27T23:11:19;1.20;;;1.00;;
12770;SDS011;6449;47.666;9.160;2022-09-27T23:16:14;1.37;;;1.00;;
12770;SDS011;6449;47.666;9.160;2022-09-27T23:21:11;1.67;;;0.90;;
12770;SDS011;6449;47.666;9.160;2022-09-27T23:26:08;2.73;;;1.00;;
12770;SDS011;6449;47.666;9.160;2022-09-27T23:31:03;1.03;;;0.77;;
12770;SDS011;6449;47.666;9.160;2022-09-27T23:35:59;1.80;;;0.90;;
12770;SDS011;6449;47.666;9.160;2022-09-27T23:40:53;2.23;;;0.70;;
12770;SDS011;6449;47.666;9.160;2022-09-27T23:45:48;1.30;;;0.80;;
12770;SDS011;6449;47.666;9.160;2022-09-27T23:50:47;1.30;;;1.00;;
12770;SDS011;6449;47.666;9.160;2022-09-27T23:55:40;1.80;;;0.80;;
